sensor_id;sensor_type;location;lat;lon;timestamp;P1;durP1;ratioP1;P2;durP2;ratioP2
42084;SDS011;27746;52.228;20.890;2023-02-28T00:01:11;19.88;;;10.25;;
42084;SDS011;27746;52.228;20.890;2023-02-28T00:03:39;22.27;;;9.20;;
42084;SDS011;27746;52.228;20.890;2023-02-28T00:06:06;23.10;;;11.90;;
42084;SDS011;27746;52.228;20.890;2023-02-28T00:08:34;23.52;;;10.73;;
42084;SDS011;27746;52.228;20.890;2023-02-28T00:11:01;20.88;;;10.10;;
42084;SDS011;27746;52.228;20.890;2023-02-28T00:13:29;24.48;;;11.55;;
42084;SDS011;27746;52.228;20.890;2023-02-28T00:16:00;22.33;;;11.23;;
42084;SDS011;27746;52.228;20.890;2023-02-28T00:18:28;20.92;;;10.18;;
42084;SDS011;27746;52.228;20.890;2023-02-28T00:20:56;21.17;;;10.60;;
42084;SDS011;27746;52.228;20.890;2023-02-28T00:23:22;23.73;;;10.32;;
42084;SDS011;27746;52.228;20.890;2023-02-28T00:25:50;20.48;;;10.13;;
42084;SDS011;27746;52.228;20.890;2023-02-28T00:28:17;22.73;;;10.10;;
42084;SDS011;27746;52.228;20.890;2023-02-28T00:30:44;21.83;;;10.23;;
42084;SDS011;27746;52.228;20.890;2023-02-28T00:33:12;16.23;;;9.50;;
42084;SDS011;27746;52.228;20.890;2023-02-28T00:35:39;21.40;;;10.43;;
42084;SDS011;27746;52.228;20.890;2023-02-28T00:38:06;22.52;;;10.60;;
42084;SDS011;27746;52.228;20.890;2023-02-28T00:40:33;16.95;;;8.40;;
42084;SDS011;27746;52.228;20.890;2023-02-28T00:43:00;17.85;;;9.30;;
42084;SDS011;27746;52.228;20.890;2023-02-28T00:45:28;20.05;;;9.70;;
42084;SDS011;27746;52.228;20.890;2023-02-28T00:47:55;18.52;;;9.98;;
42084;SDS011;27746;52.228;20.890;2023-02-28T00:50:23;18.25;;;8.52;;
42084;SDS011;27746;52.228;20.890;2023-02-28T00:52:50;19.17;;;9.18;;
42084;SDS011;27746;52.228;20.890;2023-02-28T00:55:17;15.45;;;9.02;;
42084;SDS011;27746;52.228;20.890;2023-02-28T00:57:43;18.73;;;9.73;;
42084;SDS011;27746;52.228;20.890;2023-02-28T01:00:11;15.52;;;8.95;;
42084;SDS011;27746;52.228;20.890;2023-02-28T01:02:38;21.02;;;9.60;;
42084;SDS011;27746;52.228;20.890;2023-02-28T01:05:05;20.50;;;11.10;;
42084;SDS011;27746;52.228;20.890;2023-02-28T01:07:34;15.95;;;9.95;;
42084;SDS011;27746;52.228;20.890;2023-02-28T01:10:01;16.00;;;9.23;;
42084;SDS011;27746;52.228;20.890;2023-02-28T01:12:28;17.63;;;8.93;;
42084;SDS011;27746;52.228;20.890;2023-02-28T01:14:55;15.50;;;8.18;;
42084;SDS011;27746;52.228;20.890;2023-02-28T01:17:22;18.88;;;8.70;;
42084;SDS011;27746;52.228;20.890;2023-02-28T01:19:48;16.63;;;8.15;;
42084;SDS011;27746;52.228;20.890;2023-02-28T01:22:15;19.45;;;9.13;;
42084;SDS011;27746;52.228;20.890;2023-02-28T01:24:44;13.68;;;8.70;;
42084;SDS011;27746;52.228;20.890;2023-02-28T01:27:10;18.48;;;8.75;;
42084;SDS011;27746;52.228;20.890;2023-02-28T01:29:37;18.73;;;9.57;;
42084;SDS011;27746;52.228;20.890;2023-02-28T01:32:04;17.85;;;9.45;;
42084;SDS011;27746;52.228;20.890;2023-02-28T01:34:31;15.30;;;8.30;;
42084;SDS011;27746;52.228;20.890;2023-02-28T01:36:58;17.98;;;9.43;;
42084;SDS011;27746;52.228;20.890;2023-02-28T01:39:25;23.67;;;10.45;;
42084;SDS011;27746;52.228;20.890;2023-02-28T01:41:53;22.10;;;10.13;;
42084;SDS011;27746;52.228;20.890;2023-02-28T01:47:22;20.92;;;10.05;;
42084;SDS011;27746;52.228;20.890;2023-02-28T01:49:53;22.33;;;10.63;;
42084;SDS011;27746;52.228;20.890;2023-02-28T01:52:20;19.30;;;10.40;;
42084;SDS011;27746;52.228;20.890;2023-02-28T01:54:50;21.13;;;10.55;;
42084;SDS011;27746;52.228;20.890;2023-02-28T01:57:22;23.95;;;10.40;;
42084;SDS011;27746;52.228;20.890;2023-02-28T01:59:54;23.27;;;11.00;;
42084;SDS011;27746;52.228;20.890;2023-02-28T02:02:24;20.98;;;10.70;;
42084;SDS011;27746;52.228;20.890;2023-02-28T02:04:53;19.40;;;11.32;;
42084;SDS011;27746;52.228;20.890;2023-02-28T02:07:22;18.77;;;9.75;;
42084;SDS011;27746;52.228;20.890;2023-02-28T02:09:56;22.17;;;11.30;;
42084;SDS011;27746;52.228;20.890;2023-02-28T02:12:29;21.92;;;11.07;;
42084;SDS011;27746;52.228;20.890;2023-02-28T02:15:04;17.45;;;9.45;;
42084;SDS011;27746;52.228;20.890;2023-02-28T02:17:39;21.00;;;10.00;;
42084;SDS011;27746;52.228;20.890;2023-02-28T02:20:16;21.30;;;10.30;;
42084;SDS011;27746;52.228;20.890;2023-02-28T02:26:14;21.30;;;10.30;;
42084;SDS011;27746;52.228;20.890;2023-02-28T02:29:14;21.42;;;10.70;;
42084;SDS011;27746;52.228;20.890;2023-02-28T02:32:15;21.73;;;10.98;;
42084;SDS011;27746;52.228;20.890;2023-02-28T02:35:07;23.02;;;11.38;;
42084;SDS011;27746;52.228;20.890;2023-02-28T02:37:42;22.60;;;10.98;;
42084;SDS011;27746;52.228;20.890;2023-02-28T02:40:15;20.33;;;10.25;;
42084;SDS011;27746;52.228;20.890;2023-02-28T02:42:46;20.20;;;11.23;;
42084;SDS011;27746;52.228;20.890;2023-02-28T02:45:17;24.00;;;13.25;;
42084;SDS011;27746;52.228;20.890;2023-02-28T02:47:48;19.27;;;10.95;;
42084;SDS011;27746;52.228;20.890;2023-02-28T02:50:19;22.13;;;11.38;;
42084;SDS011;27746;52.228;20.890;2023-02-28T02:52:51;24.45;;;12.23;;
42084;SDS011;27746;52.228;20.890;2023-02-28T02:55:21;20.25;;;11.32;;
42084;SDS011;27746;52.228;20.890;2023-02-28T02:57:51;23.63;;;11.98;;
42084;SDS011;27746;52.228;20.890;2023-02-28T03:00:20;21.88;;;11.02;;
42084;SDS011;27746;52.228;20.890;2023-02-28T03:02:52;19.75;;;10.43;;
42084;SDS011;27746;52.228;20.890;2023-02-28T03:05:23;23.77;;;11.20;;
42084;SDS011;27746;52.228;20.890;2023-02-28T03:07:53;28.93;;;11.67;;
42084;SDS011;27746;52.228;20.890;2023-02-28T03:10:30;21.25;;;11.13;;
42084;SDS011;27746;52.228;20.890;2023-02-28T03:13:11;20.48;;;10.88;;
42084;SDS011;27746;52.228;20.890;2023-02-28T03:15:50;21.10;;;11.13;;
42084;SDS011;27746;52.228;20.890;2023-02-28T03:18:25;22.42;;;11.68;;
42084;SDS011;27746;52.228;20.890;2023-02-28T03:21:06;21.20;;;11.20;;
42084;SDS011;27746;52.228;20.890;2023-02-28T03:23:38;22.23;;;11.95;;
42084;SDS011;27746;52.228;20.890;2023-02-28T03:26:12;24.70;;;12.65;;
42084;SDS011;27746;52.228;20.890;2023-02-28T03:28:47;21.70;;;10.82;;
42084;SDS011;27746;52.228;20.890;2023-02-28T03:31:22;22.48;;;11.13;;
42084;SDS011;27746;52.228;20.890;2023-02-28T03:33:58;22.90;;;10.35;;
42084;SDS011;27746;52.228;20.890;2023-02-28T03:36:30;20.27;;;11.07;;
42084;SDS011;27746;52.228;20.890;2023-02-28T03:39:09;23.00;;;12.02;;
42084;SDS011;27746;52.228;20.890;2023-02-28T03:41:41;27.08;;;12.35;;
42084;SDS011;27746;52.228;20.890;2023-02-28T03:44:13;18.83;;;11.05;;
42084;SDS011;27746;52.228;20.890;2023-02-28T03:46:44;22.15;;;11.82;;
42084;SDS011;27746;52.228;20.890;2023-02-28T03:51:46;23.30;;;10.68;;
42084;SDS011;27746;52.228;20.890;2023-02-28T03:54:16;22.42;;;10.80;;
42084;SDS011;27746;52.228;20.890;2023-02-28T03:56:47;19.23;;;10.63;;
42084;SDS011;27746;52.228;20.890;2023-02-28T03:59:18;18.58;;;11.10;;
42084;SDS011;27746;52.228;20.890;2023-02-28T04:01:49;21.65;;;10.88;;
42084;SDS011;27746;52.228;20.890;2023-02-28T04:04:17;21.65;;;11.40;;
42084;SDS011;27746;52.228;20.890;2023-02-28T04:06:45;22.10;;;9.95;;
42084;SDS011;27746;52.228;20.890;2023-02-28T04:09:16;25.30;;;12.65;;
42084;SDS011;27746;52.228;20.890;2023-02-28T04:11:44;18.70;;;11.18;;
42084;SDS011;27746;52.228;20.890;2023-02-28T04:14:12;19.52;;;11.23;;
42084;SDS011;27746;52.228;20.890;2023-02-28T04:16:41;24.30;;;12.85;;
42084;SDS011;27746;52.228;20.890;2023-02-28T04:19:08;19.73;;;11.70;;
42084;SDS011;27746;52.228;20.890;2023-02-28T04:21:36;20.92;;;11.35;;
42084;SDS011;27746;52.228;20.890;2023-02-28T04:24:06;22.38;;;11.43;;
42084;SDS011;27746;52.228;20.890;2023-02-28T04:26:39;28.83;;;14.23;;
42084;SDS011;27746;52.228;20.890;2023-02-28T04:29:08;21.77;;;12.90;;
42084;SDS011;27746;52.228;20.890;2023-02-28T04:31:36;21.23;;;11.57;;
42084;SDS011;27746;52.228;20.890;2023-02-28T04:34:03;20.40;;;10.40;;
42084;SDS011;27746;52.228;20.890;2023-02-28T04:36:30;26.58;;;12.27;;
42084;SDS011;27746;52.228;20.890;2023-02-28T04:38:57;24.20;;;11.65;;
42084;SDS011;27746;52.228;20.890;2023-02-28T04:41:26;23.77;;;11.82;;
42084;SDS011;27746;52.228;20.890;2023-02-28T04:43:52;23.73;;;11.65;;
42084;SDS011;27746;52.228;20.890;2023-02-28T04:46:21;26.38;;;12.27;;
42084;SDS011;27746;52.228;20.890;2023-02-28T04:48:48;18.10;;;10.48;;
42084;SDS011;27746;52.228;20.890;2023-02-28T04:51:17;19.88;;;11.55;;
42084;SDS011;27746;52.228;20.890;2023-02-28T04:53:45;19.98;;;11.07;;
42084;SDS011;27746;52.228;20.890;2023-02-28T04:56:13;25.92;;;12.98;;
42084;SDS011;27746;52.228;20.890;2023-02-28T04:58:43;19.83;;;12.23;;
42084;SDS011;27746;52.228;20.890;2023-02-28T05:01:18;24.45;;;11.63;;
42084;SDS011;27746;52.228;20.890;2023-02-28T05:03:48;31.30;;;13.27;;
42084;SDS011;27746;52.228;20.890;2023-02-28T05:06:15;21.50;;;11.52;;
42084;SDS011;27746;52.228;20.890;2023-02-28T05:08:43;25.13;;;13.73;;
42084;SDS011;27746;52.228;20.890;2023-02-28T05:11:13;21.25;;;11.00;;
42084;SDS011;27746;52.228;20.890;2023-02-28T05:13:43;24.30;;;11.00;;
42084;SDS011;27746;52.228;20.890;2023-02-28T05:16:11;21.77;;;11.80;;
42084;SDS011;27746;52.228;20.890;2023-02-28T05:18:38;26.63;;;12.00;;
42084;SDS011;27746;52.228;20.890;2023-02-28T05:21:05;24.05;;;12.38;;
42084;SDS011;27746;52.228;20.890;2023-02-28T05:23:38;34.42;;;18.30;;
42084;SDS011;27746;52.228;20.890;2023-02-28T05:26:08;43.53;;;20.63;;
42084;SDS011;27746;52.228;20.890;2023-02-28T05:28:35;30.73;;;15.80;;
42084;SDS011;27746;52.228;20.890;2023-02-28T05:31:03;28.23;;;13.50;;
42084;SDS011;27746;52.228;20.890;2023-02-28T05:33:30;22.88;;;12.15;;
42084;SDS011;27746;52.228;20.890;2023-02-28T05:35:57;28.50;;;12.50;;
42084;SDS011;27746;52.228;20.890;2023-02-28T05:38:24;27.75;;;15.50;;
42084;SDS011;27746;52.228;20.890;2023-02-28T05:40:51;30.02;;;13.20;;
42084;SDS011;27746;52.228;20.890;2023-02-28T05:43:19;24.20;;;12.57;;
42084;SDS011;27746;52.228;20.890;2023-02-28T05:45:46;23.83;;;12.45;;
42084;SDS011;27746;52.228;20.890;2023-02-28T05:48:14;26.95;;;13.80;;
42084;SDS011;27746;52.228;20.890;2023-02-28T05:50:41;27.85;;;13.65;;
42084;SDS011;27746;52.228;20.890;2023-02-28T05:53:09;29.88;;;14.27;;
42084;SDS011;27746;52.228;20.890;2023-02-28T05:55:36;27.52;;;13.13;;
42084;SDS011;27746;52.228;20.890;2023-02-28T05:58:03;31.83;;;13.95;;
42084;SDS011;27746;52.228;20.890;2023-02-28T06:00:30;26.23;;;13.57;;
42084;SDS011;27746;52.228;20.890;2023-02-28T06:02:57;30.80;;;14.73;;
42084;SDS011;27746;52.228;20.890;2023-02-28T06:05:28;29.33;;;13.85;;
42084;SDS011;27746;52.228;20.890;2023-02-28T06:07:54;34.38;;;15.90;;
42084;SDS011;27746;52.228;20.890;2023-02-28T06:10:21;34.85;;;15.48;;
42084;SDS011;27746;52.228;20.890;2023-02-28T06:12:48;31.27;;;16.80;;
42084;SDS011;27746;52.228;20.890;2023-02-28T06:15:15;35.45;;;16.67;;
42084;SDS011;27746;52.228;20.890;2023-02-28T06:17:42;36.40;;;16.02;;
42084;SDS011;27746;52.228;20.890;2023-02-28T06:20:10;36.40;;;17.75;;
42084;SDS011;27746;52.228;20.890;2023-02-28T06:22:40;39.92;;;18.58;;
42084;SDS011;27746;52.228;20.890;2023-02-28T06:25:09;35.70;;;16.13;;
42084;SDS011;27746;52.228;20.890;2023-02-28T06:27:36;31.77;;;15.20;;
42084;SDS011;27746;52.228;20.890;2023-02-28T06:30:04;33.28;;;14.52;;
42084;SDS011;27746;52.228;20.890;2023-02-28T06:32:31;31.25;;;14.15;;
42084;SDS011;27746;52.228;20.890;2023-02-28T06:34:58;33.17;;;14.40;;
42084;SDS011;27746;52.228;20.890;2023-02-28T06:37:25;26.92;;;13.65;;
42084;SDS011;27746;52.228;20.890;2023-02-28T06:39:53;31.15;;;13.90;;
42084;SDS011;27746;52.228;20.890;2023-02-28T06:42:21;27.42;;;13.43;;
42084;SDS011;27746;52.228;20.890;2023-02-28T06:44:49;27.95;;;12.77;;
42084;SDS011;27746;52.228;20.890;2023-02-28T06:47:17;24.88;;;12.77;;
42084;SDS011;27746;52.228;20.890;2023-02-28T06:49:43;28.98;;;13.60;;
42084;SDS011;27746;52.228;20.890;2023-02-28T06:52:12;21.83;;;11.55;;
42084;SDS011;27746;52.228;20.890;2023-02-28T06:54:39;22.13;;;11.82;;
42084;SDS011;27746;52.228;20.890;2023-02-28T06:57:19;33.67;;;14.57;;
42084;SDS011;27746;52.228;20.890;2023-02-28T06:59:46;22.10;;;10.77;;
42084;SDS011;27746;52.228;20.890;2023-02-28T07:02:13;20.50;;;11.05;;
42084;SDS011;27746;52.228;20.890;2023-02-28T07:04:40;23.70;;;11.95;;
42084;SDS011;27746;52.228;20.890;2023-02-28T07:07:09;30.38;;;12.60;;
42084;SDS011;27746;52.228;20.890;2023-02-28T07:09:36;22.05;;;11.45;;
42084;SDS011;27746;52.228;20.890;2023-02-28T07:12:03;24.63;;;10.65;;
42084;SDS011;27746;52.228;20.890;2023-02-28T07:17:02;22.00;;;11.13;;
42084;SDS011;27746;52.228;20.890;2023-02-28T07:19:29;17.33;;;10.25;;
42084;SDS011;27746;52.228;20.890;2023-02-28T07:21:56;20.20;;;9.57;;
42084;SDS011;27746;52.228;20.890;2023-02-28T07:24:23;19.23;;;9.82;;
42084;SDS011;27746;52.228;20.890;2023-02-28T07:26:53;16.25;;;8.80;;
42084;SDS011;27746;52.228;20.890;2023-02-28T07:29:20;12.73;;;7.30;;
42084;SDS011;27746;52.228;20.890;2023-02-28T07:31:48;17.92;;;8.38;;
42084;SDS011;27746;52.228;20.890;2023-02-28T07:34:18;16.65;;;7.55;;
42084;SDS011;27746;52.228;20.890;2023-02-28T07:36:45;12.20;;;6.80;;
42084;SDS011;27746;52.228;20.890;2023-02-28T07:39:12;10.65;;;7.07;;
42084;SDS011;27746;52.228;20.890;2023-02-28T07:41:39;15.73;;;6.40;;
42084;SDS011;27746;52.228;20.890;2023-02-28T07:44:08;14.25;;;6.63;;
42084;SDS011;27746;52.228;20.890;2023-02-28T07:46:35;12.00;;;5.85;;
42084;SDS011;27746;52.228;20.890;2023-02-28T07:49:05;14.98;;;6.10;;
42084;SDS011;27746;52.228;20.890;2023-02-28T07:51:32;12.63;;;6.50;;
42084;SDS011;27746;52.228;20.890;2023-02-28T07:53:59;13.05;;;6.20;;
42084;SDS011;27746;52.228;20.890;2023-02-28T07:56:26;20.13;;;7.43;;
42084;SDS011;27746;52.228;20.890;2023-02-28T07:58:53;16.90;;;7.72;;
42084;SDS011;27746;52.228;20.890;2023-02-28T08:01:20;15.13;;;8.40;;
42084;SDS011;27746;52.228;20.890;2023-02-28T08:03:46;15.10;;;7.40;;
42084;SDS011;27746;52.228;20.890;2023-02-28T08:06:19;16.27;;;7.38;;
42084;SDS011;27746;52.228;20.890;2023-02-28T08:11:14;17.27;;;7.97;;
42084;SDS011;27746;52.228;20.890;2023-02-28T08:13:41;30.90;;;8.40;;
42084;SDS011;27746;52.228;20.890;2023-02-28T08:16:09;19.15;;;7.88;;
42084;SDS011;27746;52.228;20.890;2023-02-28T08:18:36;11.35;;;7.78;;
42084;SDS011;27746;52.228;20.890;2023-02-28T08:21:07;13.07;;;7.78;;
42084;SDS011;27746;52.228;20.890;2023-02-28T08:23:35;18.20;;;7.82;;
42084;SDS011;27746;52.228;20.890;2023-02-28T08:26:02;13.90;;;7.97;;
42084;SDS011;27746;52.228;20.890;2023-02-28T08:28:30;12.75;;;7.40;;
42084;SDS011;27746;52.228;20.890;2023-02-28T08:30:57;20.20;;;8.65;;
42084;SDS011;27746;52.228;20.890;2023-02-28T08:33:24;14.05;;;7.70;;
42084;SDS011;27746;52.228;20.890;2023-02-28T08:35:53;13.63;;;7.43;;
42084;SDS011;27746;52.228;20.890;2023-02-28T08:38:20;13.85;;;7.75;;
42084;SDS011;27746;52.228;20.890;2023-02-28T08:40:49;16.02;;;6.75;;
42084;SDS011;27746;52.228;20.890;2023-02-28T08:43:16;13.05;;;7.00;;
42084;SDS011;27746;52.228;20.890;2023-02-28T08:45:44;15.32;;;7.43;;
42084;SDS011;27746;52.228;20.890;2023-02-28T08:48:11;13.98;;;7.10;;
42084;SDS011;27746;52.228;20.890;2023-02-28T08:50:38;13.05;;;6.85;;
42084;SDS011;27746;52.228;20.890;2023-02-28T08:53:05;10.15;;;6.53;;
42084;SDS011;27746;52.228;20.890;2023-02-28T08:55:32;12.15;;;7.30;;
42084;SDS011;27746;52.228;20.890;2023-02-28T08:58:00;12.75;;;6.78;;
42084;SDS011;27746;52.228;20.890;2023-02-28T09:00:27;12.18;;;7.95;;
42084;SDS011;27746;52.228;20.890;2023-02-28T09:02:54;13.13;;;7.70;;
42084;SDS011;27746;52.228;20.890;2023-02-28T09:05:22;12.30;;;7.75;;
42084;SDS011;27746;52.228;20.890;2023-02-28T09:07:50;14.65;;;8.00;;
42084;SDS011;27746;52.228;20.890;2023-02-28T09:10:17;14.63;;;8.35;;
42084;SDS011;27746;52.228;20.890;2023-02-28T09:12:44;14.18;;;7.65;;
42084;SDS011;27746;52.228;20.890;2023-02-28T09:15:13;14.07;;;7.78;;
42084;SDS011;27746;52.228;20.890;2023-02-28T09:17:40;16.75;;;8.27;;
42084;SDS011;27746;52.228;20.890;2023-02-28T09:20:08;13.18;;;7.00;;
42084;SDS011;27746;52.228;20.890;2023-02-28T09:22:36;13.75;;;7.72;;
42084;SDS011;27746;52.228;20.890;2023-02-28T09:25:04;17.20;;;8.32;;
42084;SDS011;27746;52.228;20.890;2023-02-28T09:27:31;16.65;;;8.82;;
42084;SDS011;27746;52.228;20.890;2023-02-28T09:29:58;20.08;;;8.60;;
42084;SDS011;27746;52.228;20.890;2023-02-28T09:32:26;16.70;;;8.57;;
42084;SDS011;27746;52.228;20.890;2023-02-28T09:34:53;17.40;;;8.50;;
42084;SDS011;27746;52.228;20.890;2023-02-28T09:37:20;17.17;;;7.75;;
42084;SDS011;27746;52.228;20.890;2023-02-28T09:39:48;12.23;;;8.13;;
42084;SDS011;27746;52.228;20.890;2023-02-28T09:42:18;16.95;;;9.68;;
42084;SDS011;27746;52.228;20.890;2023-02-28T09:44:48;14.05;;;8.15;;
42084;SDS011;27746;52.228;20.890;2023-02-28T09:47:17;13.57;;;8.50;;
42084;SDS011;27746;52.228;20.890;2023-02-28T09:49:53;14.32;;;8.35;;
42084;SDS011;27746;52.228;20.890;2023-02-28T09:52:23;16.33;;;8.27;;
42084;SDS011;27746;52.228;20.890;2023-02-28T09:54:54;17.45;;;8.68;;
42084;SDS011;27746;52.228;20.890;2023-02-28T09:57:24;20.85;;;8.18;;
42084;SDS011;27746;52.228;20.890;2023-02-28T10:00:02;15.55;;;7.55;;
42084;SDS011;27746;52.228;20.890;2023-02-28T10:02:46;13.93;;;8.52;;
42084;SDS011;27746;52.228;20.890;2023-02-28T10:05:30;12.32;;;8.32;;
42084;SDS011;27746;52.228;20.890;2023-02-28T10:08:03;10.77;;;7.10;;
42084;SDS011;27746;52.228;20.890;2023-02-28T10:10:39;11.50;;;7.43;;
42084;SDS011;27746;52.228;20.890;2023-02-28T10:13:16;18.80;;;7.63;;
42084;SDS011;27746;52.228;20.890;2023-02-28T10:15:50;11.38;;;6.90;;
42084;SDS011;27746;52.228;20.890;2023-02-28T10:18:23;11.57;;;8.13;;
42084;SDS011;27746;52.228;20.890;2023-02-28T10:20:54;11.30;;;7.88;;
42084;SDS011;27746;52.228;20.890;2023-02-28T10:23:24;13.68;;;7.70;;
42084;SDS011;27746;52.228;20.890;2023-02-28T10:25:55;13.20;;;7.63;;
42084;SDS011;27746;52.228;20.890;2023-02-28T10:28:25;14.50;;;7.32;;
42084;SDS011;27746;52.228;20.890;2023-02-28T10:30:55;12.57;;;7.95;;
42084;SDS011;27746;52.228;20.890;2023-02-28T10:33:25;14.55;;;7.25;;
42084;SDS011;27746;52.228;20.890;2023-02-28T10:35:56;13.85;;;8.07;;
42084;SDS011;27746;52.228;20.890;2023-02-28T10:38:24;10.57;;;7.22;;
42084;SDS011;27746;52.228;20.890;2023-02-28T10:40:57;10.60;;;7.05;;
42084;SDS011;27746;52.228;20.890;2023-02-28T10:43:34;11.90;;;6.83;;
42084;SDS011;27746;52.228;20.890;2023-02-28T10:46:03;12.25;;;7.55;;
42084;SDS011;27746;52.228;20.890;2023-02-28T10:48:37;9.70;;;6.63;;
42084;SDS011;27746;52.228;20.890;2023-02-28T10:51:09;12.02;;;7.55;;
42084;SDS011;27746;52.228;20.890;2023-02-28T10:53:39;12.80;;;7.05;;
42084;SDS011;27746;52.228;20.890;2023-02-28T10:56:15;12.20;;;7.13;;
42084;SDS011;27746;52.228;20.890;2023-02-28T10:58:52;8.93;;;6.15;;
42084;SDS011;27746;52.228;20.890;2023-02-28T11:01:21;9.68;;;6.25;;
42084;SDS011;27746;52.228;20.890;2023-02-28T11:03:49;12.70;;;7.63;;
42084;SDS011;27746;52.228;20.890;2023-02-28T11:06:19;12.20;;;6.68;;
42084;SDS011;27746;52.228;20.890;2023-02-28T11:08:49;10.68;;;7.78;;
42084;SDS011;27746;52.228;20.890;2023-02-28T11:11:18;10.43;;;7.18;;
42084;SDS011;27746;52.228;20.890;2023-02-28T11:13:46;13.30;;;7.78;;
42084;SDS011;27746;52.228;20.890;2023-02-28T11:16:17;10.70;;;6.90;;
42084;SDS011;27746;52.228;20.890;2023-02-28T11:18:47;9.85;;;7.50;;
42084;SDS011;27746;52.228;20.890;2023-02-28T11:21:16;11.45;;;7.20;;
42084;SDS011;27746;52.228;20.890;2023-02-28T11:23:50;11.00;;;7.63;;
42084;SDS011;27746;52.228;20.890;2023-02-28T11:26:36;10.07;;;7.03;;
42084;SDS011;27746;52.228;20.890;2023-02-28T11:29:09;9.48;;;6.85;;
42084;SDS011;27746;52.228;20.890;2023-02-28T11:31:38;11.48;;;7.70;;
42084;SDS011;27746;52.228;20.890;2023-02-28T11:36:55;10.38;;;7.57;;
42084;SDS011;27746;52.228;20.890;2023-02-28T11:39:24;13.02;;;7.30;;
42084;SDS011;27746;52.228;20.890;2023-02-28T11:42:07;9.60;;;7.68;;
42084;SDS011;27746;52.228;20.890;2023-02-28T11:45:04;11.70;;;7.90;;
42084;SDS011;27746;52.228;20.890;2023-02-28T11:47:45;12.82;;;8.18;;
42084;SDS011;27746;52.228;20.890;2023-02-28T11:50:16;13.15;;;7.93;;
42084;SDS011;27746;52.228;20.890;2023-02-28T11:52:55;10.15;;;7.47;;
42084;SDS011;27746;52.228;20.890;2023-02-28T11:55:26;8.40;;;7.03;;
42084;SDS011;27746;52.228;20.890;2023-02-28T11:58:02;11.57;;;7.32;;
42084;SDS011;27746;52.228;20.890;2023-02-28T12:00:53;11.20;;;7.18;;
42084;SDS011;27746;52.228;20.890;2023-02-28T12:03:32;12.32;;;8.07;;
42084;SDS011;27746;52.228;20.890;2023-02-28T12:06:10;9.90;;;7.43;;
42084;SDS011;27746;52.228;20.890;2023-02-28T12:08:49;11.05;;;7.95;;
42084;SDS011;27746;52.228;20.890;2023-02-28T12:11:27;14.27;;;8.23;;
42084;SDS011;27746;52.228;20.890;2023-02-28T12:14:14;10.32;;;7.38;;
42084;SDS011;27746;52.228;20.890;2023-02-28T12:17:08;11.30;;;7.35;;
42084;SDS011;27746;52.228;20.890;2023-02-28T12:19:47;11.73;;;8.05;;
42084;SDS011;27746;52.228;20.890;2023-02-28T12:22:29;9.85;;;7.20;;
42084;SDS011;27746;52.228;20.890;2023-02-28T12:28:04;11.63;;;7.78;;
42084;SDS011;27746;52.228;20.890;2023-02-28T12:30:35;10.52;;;7.65;;
42084;SDS011;27746;52.228;20.890;2023-02-28T12:33:07;9.88;;;7.57;;
42084;SDS011;27746;52.228;20.890;2023-02-28T12:35:37;10.63;;;8.00;;
42084;SDS011;27746;52.228;20.890;2023-02-28T12:38:09;11.63;;;8.18;;
42084;SDS011;27746;52.228;20.890;2023-02-28T12:40:43;11.20;;;7.93;;
42084;SDS011;27746;52.228;20.890;2023-02-28T12:43:13;14.43;;;7.57;;
42084;SDS011;27746;52.228;20.890;2023-02-28T12:45:44;12.55;;;8.55;;
42084;SDS011;27746;52.228;20.890;2023-02-28T12:48:15;10.87;;;7.80;;
42084;SDS011;27746;52.228;20.890;2023-02-28T12:50:46;11.40;;;7.15;;
42084;SDS011;27746;52.228;20.890;2023-02-28T12:53:15;11.05;;;7.93;;
42084;SDS011;27746;52.228;20.890;2023-02-28T12:55:48;12.93;;;8.70;;
42084;SDS011;27746;52.228;20.890;2023-02-28T12:58:26;13.65;;;7.75;;
42084;SDS011;27746;52.228;20.890;2023-02-28T13:01:04;10.48;;;7.10;;
42084;SDS011;27746;52.228;20.890;2023-02-28T13:06:51;13.93;;;8.50;;
42084;SDS011;27746;52.228;20.890;2023-02-28T13:09:29;12.88;;;7.70;;
42084;SDS011;27746;52.228;20.890;2023-02-28T13:11:56;13.77;;;8.90;;
42084;SDS011;27746;52.228;20.890;2023-02-28T13:14:27;13.15;;;8.90;;
42084;SDS011;27746;52.228;20.890;2023-02-28T13:16:57;12.18;;;8.52;;
42084;SDS011;27746;52.228;20.890;2023-02-28T13:19:29;13.75;;;8.43;;
42084;SDS011;27746;52.228;20.890;2023-02-28T13:21:58;12.43;;;8.88;;
42084;SDS011;27746;52.228;20.890;2023-02-28T13:24:43;14.98;;;9.30;;
42084;SDS011;27746;52.228;20.890;2023-02-28T13:33:27;11.25;;;7.75;;
42084;SDS011;27746;52.228;20.890;2023-02-28T13:36:07;11.68;;;7.70;;
42084;SDS011;27746;52.228;20.890;2023-02-28T13:38:37;13.73;;;7.95;;
42084;SDS011;27746;52.228;20.890;2023-02-28T13:44:09;11.82;;;8.40;;
42084;SDS011;27746;52.228;20.890;2023-02-28T13:46:38;8.90;;;7.07;;
42084;SDS011;27746;52.228;20.890;2023-02-28T13:49:43;11.50;;;7.32;;
42084;SDS011;27746;52.228;20.890;2023-02-28T13:52:12;11.65;;;7.90;;
42084;SDS011;27746;52.228;20.890;2023-02-28T13:54:48;14.98;;;8.45;;
42084;SDS011;27746;52.228;20.890;2023-02-28T13:57:39;12.27;;;7.57;;
42084;SDS011;27746;52.228;20.890;2023-02-28T14:00:20;16.38;;;9.13;;
42084;SDS011;27746;52.228;20.890;2023-02-28T14:03:03;12.60;;;7.55;;
42084;SDS011;27746;52.228;20.890;2023-02-28T14:05:38;15.65;;;8.35;;
42084;SDS011;27746;52.228;20.890;2023-02-28T14:08:06;13.50;;;7.65;;
42084;SDS011;27746;52.228;20.890;2023-02-28T14:10:41;11.93;;;7.65;;
42084;SDS011;27746;52.228;20.890;2023-02-28T14:13:14;12.20;;;8.18;;
42084;SDS011;27746;52.228;20.890;2023-02-28T14:16:09;10.63;;;7.32;;
42084;SDS011;27746;52.228;20.890;2023-02-28T14:18:38;13.77;;;7.43;;
42084;SDS011;27746;52.228;20.890;2023-02-28T14:21:11;12.95;;;8.15;;
42084;SDS011;27746;52.228;20.890;2023-02-28T14:23:49;11.57;;;7.60;;
42084;SDS011;27746;52.228;20.890;2023-02-28T14:29:53;12.63;;;7.82;;
42084;SDS011;27746;52.228;20.890;2023-02-28T14:32:40;18.42;;;8.30;;
42084;SDS011;27746;52.228;20.890;2023-02-28T14:35:17;12.07;;;7.95;;
42084;SDS011;27746;52.228;20.890;2023-02-28T14:37:55;11.48;;;7.72;;
42084;SDS011;27746;52.228;20.890;2023-02-28T14:40:25;17.00;;;10.32;;
42084;SDS011;27746;52.228;20.890;2023-02-28T14:42:56;14.32;;;8.32;;
42084;SDS011;27746;52.228;20.890;2023-02-28T14:45:26;20.00;;;9.82;;
42084;SDS011;27746;52.228;20.890;2023-02-28T14:47:55;14.68;;;8.18;;
42084;SDS011;27746;52.228;20.890;2023-02-28T14:50:24;20.95;;;9.45;;
42084;SDS011;27746;52.228;20.890;2023-02-28T14:52:57;13.00;;;8.23;;
42084;SDS011;27746;52.228;20.890;2023-02-28T14:55:25;14.10;;;7.72;;
42084;SDS011;27746;52.228;20.890;2023-02-28T14:57:55;17.98;;;8.90;;
42084;SDS011;27746;52.228;20.890;2023-02-28T15:00:25;15.73;;;8.90;;
42084;SDS011;27746;52.228;20.890;2023-02-28T15:02:53;16.15;;;8.80;;
42084;SDS011;27746;52.228;20.890;2023-02-28T15:05:25;20.27;;;10.18;;
42084;SDS011;27746;52.228;20.890;2023-02-28T15:08:02;16.40;;;9.38;;
42084;SDS011;27746;52.228;20.890;2023-02-28T15:10:31;16.23;;;9.00;;
42084;SDS011;27746;52.228;20.890;2023-02-28T15:12:59;14.48;;;8.43;;